createdAt,value
2023-03-30T00:05:03.379Z,63.99
2023-03-30T00:10:07.953Z,64.90
2023-03-30T00:15:13.629Z,64.58
2023-03-30T00:20:17.639Z,64.24
2023-03-30T00:25:23.446Z,64.60
2023-03-30T00:30:28.335Z,64.68
2023-03-30T00:35:31.916Z,65.02
2023-03-30T00:40:36.176Z,64.55
2023-03-30T00:45:41.294Z,64.03
2023-03-30T00:50:47.317Z,65.36
2023-03-30T00:55:52.302Z,65.62
2023-03-30T01:00:58.355Z,64.84
2023-03-30T01:06:03.687Z,65.43
2023-03-30T01:11:08.423Z,65.09
2023-03-30T01:16:20.996Z,65.18
2023-03-30T01:21:36.796Z,65.37
2023-03-30T01:26:49.787Z,65.35
2023-03-30T01:32:25.288Z,65.46
2023-03-30T01:38:01.815Z,65.96
2023-03-30T01:43:10.667Z,65.33
2023-03-30T01:48:17.046Z,65.57
2023-03-30T01:53:26.803Z,66.04
2023-03-30T01:58:34.368Z,65.80
2023-03-30T02:03:40.662Z,65.58
2023-03-30T02:08:46.350Z,65.81
2023-03-30T02:13:52.642Z,65.94
2023-03-30T02:18:57.855Z,65.94
2023-03-30T02:24:03.815Z,65.93
2023-03-30T02:29:08.674Z,65.72
2023-03-30T02:34:16.152Z,65.66
2023-03-30T02:39:26.006Z,66.40
2023-03-30T02:44:34.856Z,66.22
2023-03-30T02:50:01.804Z,66.03
2023-03-30T02:55:14.710Z,66.26
2023-03-30T03:00:20.746Z,66.30
2023-03-30T03:05:24.354Z,65.55
2023-03-30T03:10:27.824Z,66.33
2023-03-30T03:15:32.743Z,66.44
2023-03-30T03:20:36.328Z,65.66
2023-03-30T03:25:39.901Z,65.63
2023-03-30T03:30:44.821Z,65.66
2023-03-30T03:35:48.478Z,66.43
2023-03-30T03:40:52.655Z,65.94
2023-03-30T03:45:58.561Z,66.43
2023-03-30T03:51:02.470Z,66.10
2023-03-30T03:56:06.532Z,66.14
2023-03-30T04:01:14.588Z,65.61
2023-03-30T04:06:18.172Z,66.65
2023-03-30T04:11:21.649Z,66.29
2023-03-30T04:16:26.619Z,66.13
2023-03-30T04:21:30.181Z,66.44
2023-03-30T04:26:33.660Z,66.30
2023-03-30T04:31:38.787Z,65.84
2023-03-30T04:36:43.559Z,65.79
2023-03-30T04:41:47.262Z,66.10
2023-03-30T04:46:52.028Z,66.39
2023-03-30T04:51:55.515Z,65.97
2023-03-30T04:56:59.034Z,65.78
2023-03-30T05:02:04.550Z,65.62
2023-03-30T05:07:08.380Z,66.28
2023-03-30T05:12:11.861Z,66.60
2023-03-30T05:17:16.695Z,65.87
2023-03-30T05:22:20.242Z,65.95
2023-03-30T05:27:23.650Z,66.59
2023-03-30T05:32:28.691Z,66.06
2023-03-30T05:37:32.100Z,65.93
2023-03-30T05:42:35.560Z,65.93
2023-03-30T05:47:40.479Z,66.53
2023-03-30T05:52:44.020Z,66.31
2023-03-30T05:57:47.561Z,66.39
2023-03-30T06:02:52.542Z,66.31
2023-03-30T06:07:56.297Z,66.33
2023-03-30T06:12:59.800Z,65.73
2023-03-30T06:18:05.215Z,66.10
2023-03-30T06:23:08.714Z,65.95
2023-03-30T06:28:12.629Z,65.98
2023-03-30T06:33:17.894Z,65.87
2023-03-30T06:38:22.122Z,65.89
2023-03-30T06:43:27.553Z,65.93
2023-03-30T06:48:32.455Z,65.60
2023-03-30T06:53:36.069Z,66.65
2023-03-30T06:58:39.536Z,65.55
2023-03-30T07:03:44.415Z,66.35
2023-03-30T07:08:47.876Z,66.15
2023-03-30T07:13:51.733Z,66.58
2023-03-30T07:18:56.579Z,65.60
2023-03-30T07:24:01.746Z,65.60
2023-03-30T07:29:05.789Z,66.25
2023-03-30T07:34:10.635Z,65.40
2023-03-30T07:39:14.126Z,66.28
2023-03-30T07:44:17.551Z,65.42
2023-03-30T07:49:23.000Z,66.28
2023-03-30T07:54:26.496Z,66.03
2023-03-30T07:59:30.005Z,66.66
2023-03-30T08:04:35.107Z,65.72
2023-03-30T08:09:39.196Z,65.86
2023-03-30T08:14:42.756Z,65.64
2023-03-30T08:19:47.657Z,65.80
2023-03-30T08:24:51.430Z,66.31
2023-03-30T08:29:55.407Z,65.92
2023-03-30T08:35:01.125Z,65.32
2023-03-30T08:40:06.737Z,65.59
2023-03-30T08:45:11.892Z,65.19
2023-03-30T08:50:19.329Z,66.15
2023-03-30T08:55:25.531Z,66.08
2023-03-30T09:00:37.933Z,65.43
2023-03-30T09:05:47.635Z,65.06
2023-03-30T09:10:54.574Z,64.92
2023-03-30T09:16:02.816Z,65.15
2023-03-30T09:21:08.512Z,64.96
2023-03-30T09:26:20.520Z,64.56
2023-03-30T09:31:26.769Z,64.43
2023-03-30T09:36:38.046Z,63.88
2023-03-30T09:41:53.223Z,63.75
2023-03-30T09:47:00.129Z,63.71
2023-03-30T09:52:08.200Z,63.73
2023-03-30T09:57:28.330Z,63.57
2023-03-30T10:02:34.262Z,64.25
2023-03-30T10:07:41.522Z,63.95
2023-03-30T10:12:46.498Z,63.54
2023-03-30T10:17:51.607Z,63.87
2023-03-30T10:22:58.397Z,64.46
2023-03-30T10:28:03.183Z,63.09
2023-03-30T10:33:11.281Z,63.17
2023-03-30T10:38:16.677Z,63.01
2023-03-30T10:43:23.465Z,63.75
2023-03-30T10:48:41.268Z,63.79
2023-03-30T10:53:52.383Z,63.60
2023-03-30T10:59:13.240Z,63.56
2023-03-30T11:04:24.038Z,63.12
2023-03-30T11:09:32.261Z,62.37
2023-03-30T11:14:42.840Z,63.01
2023-03-30T11:19:48.910Z,62.94
2023-03-30T11:24:54.592Z,62.73
2023-03-30T11:30:02.115Z,62.15
2023-03-30T11:35:12.333Z,62.52
2023-03-30T11:40:20.187Z,63.56
2023-03-30T11:45:43.676Z,62.53
2023-03-30T11:50:58.613Z,62.44
2023-03-30T11:56:09.652Z,62.65
2023-03-30T12:01:28.039Z,62.58
2023-03-30T12:06:33.656Z,62.92
2023-03-30T12:11:41.300Z,62.20
2023-03-30T12:16:47.468Z,62.36
2023-03-30T12:21:54.623Z,63.33
2023-03-30T12:27:05.816Z,61.99
2023-03-30T12:32:21.336Z,63.12
2023-03-30T12:37:29.363Z,63.01
2023-03-30T12:42:39.750Z,63.02
2023-03-30T12:48:10.274Z,62.78
2023-03-30T12:53:28.164Z,62.92
2023-03-30T12:58:50.402Z,62.64
2023-03-30T13:03:55.082Z,61.85
2023-03-30T13:09:05.519Z,62.36
2023-03-30T13:14:18.504Z,62.08
2023-03-30T13:19:24.463Z,62.46
2023-03-30T13:24:37.069Z,62.52
2023-03-30T13:29:42.552Z,62.62
2023-03-30T13:35:07.588Z,62.44
2023-03-30T13:40:24.510Z,62.58
2023-03-30T13:45:48.307Z,62.63
2023-03-30T13:50:54.954Z,62.27
2023-03-30T13:55:58.628Z,62.96
2023-03-30T14:01:07.715Z,62.80
2023-03-30T14:06:18.000Z,62.73
2023-03-30T14:11:23.145Z,62.78
2023-03-30T14:16:29.248Z,63.54
2023-03-30T14:21:34.502Z,63.19
2023-03-30T14:26:42.429Z,62.99
2023-03-30T14:31:56.725Z,63.60
2023-03-30T14:37:09.498Z,63.12
2023-03-30T14:42:18.985Z,62.76
2023-03-30T14:47:26.062Z,62.51
2023-03-30T14:52:34.596Z,62.68
2023-03-30T14:57:40.418Z,62.57
2023-03-30T15:02:45.845Z,63.39
2023-03-30T15:07:51.059Z,62.17
2023-03-30T15:12:57.078Z,62.33
2023-03-30T15:18:04.290Z,62.16
2023-03-30T15:23:08.019Z,62.32
2023-03-30T15:28:19.314Z,63.30
2023-03-30T15:33:26.810Z,61.97
2023-03-30T15:38:31.807Z,62.61
2023-03-30T15:43:38.614Z,62.61
2023-03-30T15:48:46.050Z,61.98
2023-03-30T15:53:53.647Z,62.66
2023-03-30T15:58:59.284Z,62.54
2023-03-30T16:04:07.190Z,63.07
2023-03-30T16:09:10.903Z,64.29
2023-03-30T16:14:16.414Z,62.72
2023-03-30T16:19:21.285Z,63.37
2023-03-30T16:24:24.708Z,63.50
2023-03-30T16:29:28.243Z,62.27
2023-03-30T16:34:33.246Z,62.12
2023-03-30T16:39:36.874Z,63.70
2023-03-30T16:44:40.393Z,63.51
2023-03-30T16:49:45.246Z,62.10
2023-03-30T16:54:48.734Z,63.14
2023-03-30T16:59:52.838Z,61.78
2023-03-30T17:04:57.760Z,63.33
2023-03-30T17:10:01.285Z,61.78
2023-03-30T17:15:04.913Z,63.79
2023-03-30T17:20:19.896Z,62.42
2023-03-30T17:25:26.674Z,62.63
2023-03-30T17:30:35.899Z,62.30
2023-03-30T17:35:41.217Z,62.35
2023-03-30T17:40:45.087Z,62.41
2023-03-30T17:45:48.793Z,62.85
2023-03-30T17:50:53.650Z,62.65
2023-03-30T17:55:57.150Z,62.84
2023-03-30T18:01:01.330Z,62.60
2023-03-30T18:06:06.665Z,62.74
2023-03-30T18:11:10.135Z,62.35
2023-03-30T18:16:14.233Z,62.68
2023-03-30T18:21:19.206Z,62.94
2023-03-30T18:26:22.760Z,62.54
2023-03-30T18:31:26.517Z,62.53
2023-03-30T18:36:31.399Z,62.45
2023-03-30T18:41:34.911Z,62.99
2023-03-30T18:46:38.427Z,62.44
2023-03-30T18:51:43.586Z,62.69
2023-03-30T18:56:47.969Z,62.52
2023-03-30T19:01:51.798Z,62.63
2023-03-30T19:06:56.723Z,62.55
2023-03-30T19:12:00.258Z,63.18
2023-03-30T19:17:03.796Z,62.63
2023-03-30T19:22:08.812Z,62.85
2023-03-30T19:27:12.283Z,63.19
2023-03-30T19:32:16.720Z,62.78
2023-03-30T19:37:21.876Z,63.00
2023-03-30T19:42:26.775Z,62.66
2023-03-30T19:47:32.045Z,63.32
2023-03-30T19:52:37.026Z,63.19
2023-03-30T19:57:40.633Z,63.25
2023-03-30T20:02:47.063Z,63.28
2023-03-30T20:07:52.336Z,63.29
2023-03-30T20:12:55.916Z,63.32
2023-03-30T20:18:00.145Z,63.60
2023-03-30T20:23:05.140Z,63.60
2023-03-30T20:28:08.877Z,63.53
2023-03-30T20:33:12.513Z,63.39
2023-03-30T20:38:17.930Z,63.07
2023-03-30T20:43:21.421Z,63.83
2023-03-30T20:48:27.682Z,63.64
2023-03-30T20:53:34.102Z,63.57
2023-03-30T20:58:37.935Z,63.63
2023-03-30T21:03:44.957Z,63.40
2023-03-30T21:08:49.921Z,63.64
2023-03-30T21:13:54.681Z,63.45
2023-03-30T21:18:58.169Z,63.71
2023-03-30T21:24:03.150Z,63.63
2023-03-30T21:29:07.007Z,63.47
2023-03-30T21:34:10.958Z,63.94
2023-03-30T21:39:15.881Z,63.32
2023-03-30T21:44:19.911Z,63.68
2023-03-30T21:49:23.422Z,64.12
2023-03-30T21:54:28.273Z,64.25
2023-03-30T21:59:31.945Z,63.70
2023-03-30T22:04:35.366Z,64.13
2023-03-30T22:09:40.375Z,64.04
2023-03-30T22:14:43.819Z,64.25
2023-03-30T22:19:51.155Z,64.19
2023-03-30T22:24:56.024Z,64.61
2023-03-30T22:29:59.604Z,64.38
2023-03-30T22:35:03.169Z,64.92
2023-03-30T22:40:10.128Z,64.49
2023-03-30T22:45:13.739Z,64.73
2023-03-30T22:50:17.735Z,64.40
2023-03-30T22:55:22.950Z,64.92
2023-03-30T23:00:26.404Z,64.88
2023-03-30T23:05:29.832Z,65.20
2023-03-30T23:10:37.683Z,65.24
2023-03-30T23:15:41.142Z,65.49
2023-03-30T23:20:46.923Z,65.62
2023-03-30T23:25:52.431Z,65.64
2023-03-30T23:30:55.976Z,66.25
2023-03-30T23:35:59.526Z,66.21
2023-03-30T23:41:04.525Z,65.68
2023-03-30T23:46:08.286Z,65.83
2023-03-30T23:51:12.517Z,65.73
2023-03-30T23:56:17.839Z,66.12
